Time;durP1;ratioP1;P1;durP2;ratioP2;P2;SDS_P1;SDS_P2;PMS_P1;PMS_P2;Temp;Humidity;BMP_temperature;BMP_pressure;BME280_temperature;BME280_humidity;BME280_pressure;Samples;Min_cycle;Max_cycle;Signal;HPM_P1;HPM_P2
2023/01/11 00:01:49;;;;;;;134.18;13.38;;;;;;;6.76;93.46;95790.88;5056688;28;20098;-62
2023/01/11 00:04:17;;;;;;;34.53;10.98;;;;;;;6.68;93.72;95797.19;5056902;28;20075;-66
2023/01/11 00:06:44;;;;;;;26.73;11.13;;;;;;;6.62;93.80;95786.16;5056621;28;20098;-64
2023/01/11 00:09:12;;;;;;;43.05;12.57;;;;;;;6.59;94.45;95789.69;5056571;28;20059;-64
2023/01/11 00:11:40;;;;;;;40.33;12.63;;;;;;;6.57;94.12;95794.13;5056418;28;20048;-66
2023/01/11 00:14:08;;;;;;;16.48;11.27;;;;;;;6.59;94.18;95794.06;5056343;28;20109;-62
2023/01/11 00:16:35;;;;;;;43.42;11.38;;;;;;;6.54;94.11;95795.03;5056444;28;20044;-66
2023/01/11 00:19:02;;;;;;;127.25;13.73;;;;;;;6.59;94.35;95801.84;5056438;28;20177;-63
2023/01/11 00:21:30;;;;;;;44.40;11.25;;;;;;;6.61;94.14;95806.09;5056368;28;20056;-64
2023/01/11 00:23:57;;;;;;;58.45;11.40;;;;;;;6.66;93.58;95798.16;5056301;28;20091;-65
2023/01/11 00:26:24;;;;;;;15.77;11.05;;;;;;;6.68;93.60;95812.78;5056322;28;20048;-64
2023/01/11 00:28:52;;;;;;;40.33;12.63;;;;;;;6.61;93.32;95820.81;5056317;28;20044;-66
2023/01/11 00:31:20;;;;;;;30.67;11.85;;;;;;;6.52;93.62;95816.78;5056394;28;20053;-66
2023/01/11 00:33:48;;;;;;;19.95;11.25;;;;;;;6.54;93.30;95818.44;5056045;28;20105;-65
2023/01/11 00:36:15;;;;;;;21.70;10.82;;;;;;;6.52;93.31;95816.78;5056108;28;20506;-63
2023/01/11 00:38:50;;;;;;;20.70;11.02;;;;;;;6.50;93.72;95823.81;5056002;28;20049;-63
2023/01/11 00:49:33;;;;;;;51.13;11.98;;;;;;;6.54;92.92;95818.44;5056108;28;20063;-64
2023/01/11 00:52:00;;;;;;;61.63;12.38;;;;;;;6.59;92.45;95820.88;5055901;28;20398;-66
2023/01/11 00:54:28;;;;;;;94.28;13.23;;;;;;;6.60;92.48;95824.34;5056046;27;20076;-66
2023/01/11 00:56:55;;;;;;;21.15;10.45;;;;;;;6.61;91.99;95826.88;5055927;28;20045;-64
2023/01/11 00:59:22;;;;;;;28.65;11.32;;;;;;;6.57;91.98;95828.72;5055925;28;20128;-64
2023/01/11 01:01:50;;;;;;;21.77;12.13;;;;;;;6.46;92.09;95828.25;5055790;28;20128;-64
2023/01/11 01:04:18;;;;;;;29.27;12.95;;;;;;;6.32;92.83;95831.28;5055838;28;20055;-65
2023/01/11 01:06:45;;;;;;;26.85;12.90;;;;;;;6.27;93.04;95828.00;5055796;28;20045;-66
2023/01/11 01:09:12;;;;;;;25.35;12.85;;;;;;;6.22;93.32;95827.28;5051470;28;20049;-63
2023/01/11 01:11:40;;;;;;;24.02;12.35;;;;;;;6.23;93.55;95822.03;5052493;28;20045;-66
2023/01/11 01:16:54;;;;;;;22.00;12.63;;;;;;;6.21;93.44;95825.59;5052456;28;20068;-63
2023/01/11 01:19:21;;;;;;;22.75;12.57;;;;;;;6.15;92.99;95832.69;5052299;28;20049;-66
2023/01/11 01:21:48;;;;;;;22.52;12.35;;;;;;;6.14;92.83;95836.16;5052267;28;20113;-64
2023/01/11 01:24:16;;;;;;;25.30;12.63;;;;;;;6.06;93.19;95830.38;5052229;28;20052;-63
2023/01/11 01:26:43;;;;;;;23.27;13.32;;;;;;;6.09;93.30;95832.03;5052175;28;20089;-66
2023/01/11 01:29:10;;;;;;;30.65;13.18;;;;;;;6.11;93.20;95841.47;5052188;28;20452;-66
2023/01/11 01:31:38;;;;;;;23.35;12.70;;;;;;;6.12;93.11;95839.72;5052093;28;20041;-65
2023/01/11 01:34:07;;;;;;;19.83;12.30;;;;;;;6.17;92.46;95837.84;5052110;28;20059;-65
2023/01/11 01:36:35;;;;;;;16.27;9.73;;;;;;;6.21;91.93;95836.84;5052061;28;20052;-66
2023/01/11 01:39:04;;;;;;;20.08;13.25;;;;;;;6.21;91.76;95831.66;5051989;28;20512;-66
2023/01/11 01:41:31;;;;;;;20.00;13.07;;;;;;;6.27;91.39;95841.00;5051876;28;20132;-65
2023/01/11 01:43:59;;;;;;;20.33;13.48;;;;;;;6.27;91.10;95843.59;5051793;28;20143;-65
2023/01/11 01:46:28;;;;;;;20.92;13.30;;;;;;;6.27;90.74;95847.03;5052067;28;20047;-65
2023/01/11 01:48:59;;;;;;;21.83;12.43;;;;;;;6.27;90.79;95847.03;5051854;28;20478;-65
2023/01/11 01:51:30;;;;;;;;;;;;;;;6.19;90.80;95839.50;5052241;28;20080;-64
2023/01/11 01:54:01;;;;;;;24.63;13.68;;;;;;;6.05;91.12;95836.47;5051779;28;19921;-65
2023/01/11 01:56:33;;;;;;;22.42;14.10;;;;;;;5.98;91.71;95840.09;5051839;28;20053;-64
2023/01/11 01:59:11;;;;;;;23.92;14.73;;;;;;;5.99;92.12;95849.63;5051814;28;20045;-66
2023/01/11 02:01:47;;;;;;;21.98;12.57;;;;;;;5.93;92.22;95845.47;5051629;28;20047;-65
2023/01/11 02:04:20;;;;;;;33.83;13.32;;;;;;;5.89;92.11;95851.63;5051707;28;20521;-65
2023/01/11 02:06:50;;;;;;;17.95;11.70;;;;;;;5.84;92.51;95853.53;5051641;28;20077;-63
2023/01/11 02:09:23;;;;;;;31.30;13.63;;;;;;;5.84;92.63;95843.16;5051663;28;20486;-64
2023/01/11 02:11:52;;;;;;;19.35;12.45;;;;;;;5.84;92.93;95843.16;5051525;28;20140;-65
2023/01/11 02:14:21;;;;;;;21.42;12.18;;;;;;;5.86;92.98;95847.38;5051461;28;20052;-65
2023/01/11 02:16:48;;;;;;;26.90;13.35;;;;;;;5.91;92.91;95848.09;5051419;28;20051;-64
2023/01/11 02:19:28;;;;;;;24.48;13.00;;;;;;;5.98;92.97;95853.09;5051243;28;20096;-64
2023/01/11 02:22:27;;;;;;;21.77;12.35;;;;;;;6.01;92.61;95853.84;5051352;28;20089;-66
2023/01/11 02:25:12;;;;;;;20.20;11.80;;;;;;;6.03;92.67;95859.00;5051227;28;20053;-63
2023/01/11 02:28:08;;;;;;;21.75;12.10;;;;;;;6.01;92.84;95860.78;5051258;28;20047;-66
2023/01/11 02:30:44;;;;;;;306.95;21.95;;;;;;;6.04;92.86;95869.38;5051565;28;20470;-67
2023/01/11 02:33:22;;;;;;;41.75;13.32;;;;;;;6.03;92.69;95872.00;5051220;28;20048;-64
2023/01/11 02:36:01;;;;;;;27.05;12.35;;;;;;;6.06;92.81;95874.53;5051078;28;20045;-65
2023/01/11 02:38:32;;;;;;;35.83;11.93;;;;;;;6.07;92.27;95865.81;5051108;28;20049;-66
2023/01/11 02:41:09;;;;;;;8.02;6.05;;;;;;;6.00;90.83;95872.94;5051079;28;20051;-65
2023/01/11 02:46:40;;;;;;;2.55;2.03;;;;;;;5.84;90.39;95876.88;5051097;28;20055;-62
2023/01/11 02:49:15;;;;;;;3.10;1.90;;;;;;;5.69;89.85;95872.09;5050924;28;20049;-64
2023/01/11 02:51:48;;;;;;;1.88;1.17;;;;;;;5.58;90.94;95876.75;5050916;28;20098;-64
2023/01/11 02:54:19;;;;;;;1.77;1.00;;;;;;;5.56;90.93;95873.34;5050775;28;20135;-63
2023/01/11 02:56:50;;;;;;;0.50;0.50;;;;;;;5.42;90.97;95878.94;5050740;28;20049;-65
2023/01/11 02:59:20;;;;;;;;;;;;;;;5.32;91.03;95878.31;5051127;28;20053;-64
2023/01/11 03:01:50;;;;;;;0.60;0.60;;;;;;;5.16;91.35;95877.91;5050698;28;20019;-63
2023/01/11 03:04:29;;;;;;;0.60;0.60;;;;;;;5.13;91.68;95881.44;5050745;28;20110;-64
2023/01/11 03:07:14;;;;;;;0.70;0.70;;;;;;;5.07;91.23;95879.00;5050606;28;20048;-65
2023/01/11 03:09:53;;;;;;;0.68;0.68;;;;;;;5.03;92.33;95880.81;5050512;28;20083;-65
2023/01/11 03:12:53;;;;;;;0.60;0.60;;;;;;;5.00;92.46;95874.88;5050592;28;20455;-63
2023/01/11 03:15:43;;;;;;;0.50;0.50;;;;;;;5.04;92.67;95874.75;5050546;28;20487;-64
2023/01/11 03:18:25;;;;;;;0.77;0.75;;;;;;;5.05;92.15;95870.41;5050527;28;20067;-65
2023/01/11 03:21:02;;;;;;;1.88;1.70;;;;;;;4.99;91.77;95874.03;5050464;28;20097;-66
2023/01/11 03:23:35;;;;;;;2.90;1.10;;;;;;;4.96;92.52;95868.09;5050517;28;20481;-64
2023/01/11 03:26:11;;;;;;;1.40;1.15;;;;;;;4.99;92.69;95878.34;5050408;28;20091;-64
2023/01/11 03:28:44;;;;;;;0.60;0.60;;;;;;;4.93;93.06;95877.63;5050462;28;20045;-65
2023/01/11 03:31:19;;;;;;;1.58;1.10;;;;;;;4.90;93.62;95875.13;5049742;28;20148;-66
2023/01/11 03:33:54;;;;;;;1.08;0.98;;;;;;;4.89;93.92;95877.75;5050261;28;20093;-66
2023/01/11 03:36:26;;;;;;;2.47;1.00;;;;;;;4.88;93.74;95879.47;5050355;28;20053;-66
2023/01/11 03:38:58;;;;;;;0.80;0.80;;;;;;;4.85;93.74;95879.56;5050263;28;20099;-63
2023/01/11 03:41:29;;;;;;;1.85;0.95;;;;;;;4.79;93.89;95888.34;5050340;28;20052;-65
2023/01/11 03:44:00;;;;;;;1.52;0.88;;;;;;;4.80;93.50;95890.06;5050027;28;20049;-63
2023/01/11 03:46:33;;;;;;;0.68;0.68;;;;;;;4.78;93.08;95894.41;5050072;28;20045;-64
2023/01/11 03:49:04;;;;;;;0.70;0.70;;;;;;;4.73;93.20;95896.25;5050099;28;20049;-66
2023/01/11 03:51:37;;;;;;;0.73;0.70;;;;;;;4.64;93.40;95896.50;5050124;28;20456;-63
2023/01/11 03:54:08;;;;;;;2.55;0.70;;;;;;;4.61;93.69;95896.59;5049990;28;20095;-65
2023/01/11 03:56:40;;;;;;;1.10;0.80;;;;;;;4.58;94.05;95902.69;5049969;28;20482;-63
2023/01/11 03:59:08;;;;;;;1.00;0.85;;;;;;;4.62;93.93;95908.63;5049926;28;20082;-64
2023/01/11 04:01:37;;;;;;;1.10;0.95;;;;;;;4.58;93.69;95909.63;5049953;28;20053;-66
2023/01/11 04:04:05;;;;;;;1.17;0.60;;;;;;;4.55;93.63;95920.91;5049928;28;20631;-63
2023/01/11 04:06:36;;;;;;;0.60;0.60;;;;;;;4.52;93.89;95923.56;5049782;28;20052;-63
2023/01/11 04:09:03;;;;;;;0.55;0.50;;;;;;;4.50;94.10;95928.78;5049792;28;20041;-67
2023/01/11 04:11:30;;;;;;;0.70;0.70;;;;;;;4.46;94.02;95923.72;5049880;28;20073;-67
2023/01/11 04:13:57;;;;;;;0.70;0.60;;;;;;;4.48;94.71;95933.13;5049845;28;20105;-66
2023/01/11 04:16:24;;;;;;;1.17;0.60;;;;;;;4.49;94.08;95934.00;5049698;28;20041;-67
2023/01/11 04:18:53;;;;;;;0.63;0.63;;;;;;;4.49;94.59;95941.78;5049790;28;20056;-65
2023/01/11 04:21:20;;;;;;;0.80;0.80;;;;;;;4.48;94.75;95946.09;5049695;28;20479;-65
2023/01/11 04:23:47;;;;;;;0.60;0.60;;;;;;;4.50;94.66;95946.91;5049644;28;20074;-65
2023/01/11 04:26:16;;;;;;;0.73;0.70;;;;;;;4.50;94.41;95948.66;5049611;28;20045;-64
2023/01/11 04:28:43;;;;;;;0.68;0.68;;;;;;;4.51;94.74;95958.09;5049750;28;20492;-67
2023/01/11 04:31:11;;;;;;;0.60;0.60;;;;;;;4.53;94.27;95957.22;5049604;28;20059;-65
2023/01/11 04:33:39;;;;;;;1.98;0.80;;;;;;;4.49;94.94;95962.50;5049335;28;20049;-66
2023/01/11 04:36:09;;;;;;;0.60;0.60;;;;;;;4.48;95.18;95956.44;5049466;28;20053;-67
2023/01/11 04:38:36;;;;;;;0.75;0.75;;;;;;;4.50;95.41;95965.06;5049458;28;20092;-66
2023/01/11 04:43:49;;;;;;;1.17;1.00;;;;;;;4.45;95.30;95964.28;5051171;28;20067;-65
2023/01/11 04:46:16;;;;;;;0.63;0.63;;;;;;;4.44;95.07;95970.38;5052967;28;20048;-65
2023/01/11 04:48:43;;;;;;;0.80;0.77;;;;;;;4.42;95.04;95964.34;5052823;28;20052;-65
2023/01/11 04:51:11;;;;;;;0.70;0.70;;;;;;;4.40;94.80;95954.03;5052749;28;20078;-64
2023/01/11 04:53:39;;;;;;;0.60;0.60;;;;;;;4.47;95.31;95975.47;5052627;28;20422;-64
2023/01/11 04:56:07;;;;;;;0.73;0.73;;;;;;;4.48;95.04;95977.16;5052670;28;20056;-66
2023/01/11 04:58:35;;;;;;;1.90;0.90;;;;;;;4.48;95.20;95982.34;5052624;28;20045;-64
2023/01/11 05:01:09;;;;;;;1.33;0.90;;;;;;;4.53;95.11;95987.44;5052626;28;20145;-62
2023/01/11 05:03:37;;;;;;;0.70;0.70;;;;;;;4.60;94.43;95991.59;5052508;28;20052;-64
2023/01/11 05:06:04;;;;;;;1.23;0.75;;;;;;;4.60;94.72;95996.75;5052581;28;20494;-67
2023/01/11 05:08:33;;;;;;;1.10;0.80;;;;;;;4.53;95.16;95992.63;5052455;28;20090;-67
2023/01/11 05:11:03;;;;;;;0.73;0.73;;;;;;;4.60;95.74;95996.75;5052563;28;20045;-63
2023/01/11 05:13:41;;;;;;;1.15;1.05;;;;;;;4.60;95.87;95991.59;5052330;28;20049;-67
2023/01/11 05:16:11;;;;;;;1.33;1.23;;;;;;;4.58;95.56;95993.38;5052392;28;20053;-65
2023/01/11 05:18:40;;;;;;;1.73;1.10;;;;;;;4.60;95.46;95996.75;5052354;28;20049;-63
2023/01/11 05:21:07;;;;;;;1.40;1.30;;;;;;;4.60;95.37;96003.72;5052292;28;20483;-64
2023/01/11 05:23:36;;;;;;;1.17;1.10;;;;;;;4.63;94.51;96008.78;5052402;28;20053;-64
2023/01/11 05:26:05;;;;;;;1.55;1.20;;;;;;;4.56;94.97;96005.50;5052308;28;20084;-62
2023/01/11 05:28:33;;;;;;;1.10;1.00;;;;;;;4.59;94.99;96009.75;5052271;28;20045;-63
2023/01/11 05:31:00;;;;;;;1.13;1.00;;;;;;;4.58;95.17;96021.88;5052149;28;20045;-64
2023/01/11 05:33:28;;;;;;;2.35;0.90;;;;;;;4.58;94.84;96015.81;5052098;28;20049;-66
2023/01/11 05:35:58;;;;;;;0.80;0.80;;;;;;;4.59;94.05;96020.13;5052287;28;20045;-65
2023/01/11 05:38:26;;;;;;;1.20;0.70;;;;;;;4.58;93.90;96021.00;5052128;28;20056;-64
2023/01/11 05:40:59;;;;;;;0.73;0.73;;;;;;;4.55;93.63;96024.53;5052191;28;20052;-64
2023/01/11 05:43:28;;;;;;;1.00;0.90;;;;;;;4.53;93.51;96029.75;5051836;28;20053;-61
2023/01/11 05:45:56;;;;;;;2.33;1.00;;;;;;;4.52;93.93;96020.25;5052013;28;20077;-63
2023/01/11 05:48:24;;;;;;;0.80;0.80;;;;;;;4.54;93.72;96022.81;5051926;28;20492;-62
2023/01/11 05:50:52;;;;;;;1.02;0.82;;;;;;;4.53;93.55;96026.28;5052032;28;20052;-67
2023/01/11 05:53:20;;;;;;;1.27;0.90;;;;;;;4.58;93.59;96024.47;5051585;28;20076;-63
2023/01/11 05:55:54;;;;;;;1.20;0.95;;;;;;;4.55;93.66;96030.53;5051533;28;20140;-63
2023/01/11 05:58:24;;;;;;;0.60;0.60;;;;;;;4.54;93.67;96031.44;5052043;28;20049;-66
2023/01/11 06:00:53;;;;;;;1.00;0.80;;;;;;;4.52;93.92;96027.19;5051801;28;20052;-65
2023/01/11 06:03:21;;;;;;;2.45;0.95;;;;;;;4.53;94.39;96023.69;5051714;28;20077;-62
2023/01/11 06:05:48;;;;;;;2.38;1.00;;;;;;;4.53;94.46;96031.47;5051705;28;20131;-64
2023/01/11 06:08:16;;;;;;;1.17;0.88;;;;;;;4.55;94.62;96038.31;5051704;28;20097;-62
2023/01/11 06:10:45;;;;;;;3.45;0.90;;;;;;;4.62;94.61;96045.97;5051553;28;20133;-63
2023/01/11 06:13:27;;;;;;;2.72;0.57;;;;;;;4.65;93.97;96046.75;5051494;28;20045;-65
2023/01/11 06:15:59;;;;;;;0.70;0.70;;;;;;;4.66;94.12;96053.63;5051493;28;20505;-66
2023/01/11 06:18:29;;;;;;;0.80;0.80;;;;;;;4.68;94.38;96040.66;5051540;28;20509;-65
2023/01/11 06:20:56;;;;;;;1.42;1.05;;;;;;;4.75;94.61;96052.56;5051571;28;20045;-67
2023/01/11 06:23:24;;;;;;;0.85;0.70;;;;;;;4.81;94.51;96054.16;5051496;28;20095;-66
2023/01/11 06:25:52;;;;;;;4.28;0.85;;;;;;;4.88;93.45;96066.09;5051409;28;20041;-63
2023/01/11 06:28:19;;;;;;;2.45;0.70;;;;;;;4.90;93.28;96074.69;5051280;28;20067;-62
2023/01/11 06:30:53;;;;;;;0.70;0.70;;;;;;;4.97;93.11;96074.56;5051155;28;20045;-67
2023/01/11 06:33:23;;;;;;;1.17;0.60;;;;;;;5.03;93.41;96079.59;5051216;28;20136;-63
2023/01/11 06:35:51;;;;;;;0.45;0.45;;;;;;;5.09;93.11;96082.03;5051100;28;20053;-65
2023/01/11 06:38:20;;;;;;;1.15;0.68;;;;;;;5.15;92.88;96073.28;5051111;28;20088;-64
2023/01/11 06:40:52;;;;;;;0.93;0.80;;;;;;;5.24;92.80;96078.22;5051074;28;20084;-64
2023/01/11 06:43:21;;;;;;;2.33;0.80;;;;;;;5.30;92.66;96090.22;5050840;28;20053;-65
2023/01/11 06:45:48;;;;;;;0.75;0.75;;;;;;;5.33;92.37;96097.06;5051098;28;20124;-68
2023/01/11 06:48:16;;;;;;;0.50;0.50;;;;;;;5.33;92.44;96097.94;5051042;28;20101;-65
2023/01/11 06:50:47;;;;;;;0.52;0.52;;;;;;;5.33;91.36;96108.31;5051013;27;20053;-64
2023/01/11 06:53:15;;;;;;;0.60;0.60;;;;;;;5.32;90.91;96103.97;5050942;28;20094;-66
2023/01/11 06:55:43;;;;;;;0.60;0.60;;;;;;;5.30;91.10;96114.41;5050825;28;20487;-63
2023/01/11 06:58:10;;;;;;;0.70;0.60;;;;;;;5.31;90.83;96121.31;5050792;28;20094;-67
2023/01/11 07:00:38;;;;;;;0.50;0.50;;;;;;;5.35;90.92;96122.06;5050806;28;20500;-67
2023/01/11 07:03:07;;;;;;;1.20;0.60;;;;;;;5.35;90.74;96132.44;5050785;28;20053;-67
2023/01/11 07:05:35;;;;;;;1.95;0.60;;;;;;;5.40;90.71;96133.22;5049780;28;20056;-66
2023/01/11 07:08:05;;;;;;;0.60;0.60;;;;;;;5.41;90.62;96136.63;5050784;28;20172;-65
2023/01/11 07:10:32;;;;;;;0.60;0.60;;;;;;;5.46;90.49;96126.16;5050717;28;20049;-64
2023/01/11 07:13:00;;;;;;;0.60;0.60;;;;;;;5.46;90.49;96129.59;5050666;28;20394;-65
2023/01/11 07:15:27;;;;;;;2.22;0.70;;;;;;;5.51;90.47;96127.72;5050493;28;20149;-65
2023/01/11 07:17:55;;;;;;;0.40;0.40;;;;;;;5.59;90.15;96137.94;5050523;28;20098;-66
2023/01/11 07:20:23;;;;;;;1.67;0.63;;;;;;;5.62;90.21;96131.81;5050498;28;20555;-64
2023/01/11 07:22:50;;;;;;;1.38;0.60;;;;;;;5.67;89.77;96128.22;5050469;28;20140;-67
2023/01/11 07:25:19;;;;;;;1.85;0.70;;;;;;;5.66;90.14;96129.09;5050466;28;20049;-63
2023/01/11 07:27:46;;;;;;;0.75;0.60;;;;;;;5.71;90.04;96133.31;5050520;28;20049;-64
2023/01/11 07:30:14;;;;;;;0.88;0.88;;;;;;;5.65;89.91;96135.19;5050298;28;20041;-63
2023/01/11 07:32:41;;;;;;;0.73;0.73;;;;;;;5.65;90.14;96145.56;5050306;28;20132;-67
2023/01/11 07:35:09;;;;;;;1.27;1.17;;;;;;;5.67;90.64;96143.81;5050230;28;20059;-65
2023/01/11 07:37:40;;;;;;;1.15;1.00;;;;;;;5.71;91.03;96144.56;5050251;28;20053;-65
2023/01/11 07:40:08;;;;;;;1.25;0.77;;;;;;;5.72;91.62;96135.88;5050366;28;20102;-67
2023/01/11 07:45:21;;;;;;;1.00;0.90;;;;;;;5.91;91.86;96157.06;5050274;28;20056;-65
2023/01/11 07:47:50;;;;;;;1.73;0.77;;;;;;;5.94;91.69;96169.94;5050159;28;20052;-67
2023/01/11 07:50:17;;;;;;;0.82;0.82;;;;;;;5.90;92.52;96168.31;5050176;28;20403;-60
2023/01/11 07:52:47;;;;;;;1.80;1.70;;;;;;;5.92;92.49;96165.69;5050013;28;20072;-64
2023/01/11 07:55:15;;;;;;;4.40;3.58;;;;;;;5.97;92.55;96165.56;5049974;28;20056;-64
2023/01/11 07:57:44;;;;;;;4.93;4.43;;;;;;;5.90;92.50;96176.09;5049923;28;20051;-63
2023/01/11 08:00:13;;;;;;;7.63;3.15;;;;;;;5.86;92.97;96182.25;5050031;28;20045;-64
2023/01/11 08:02:41;;;;;;;6.38;2.88;;;;;;;5.89;92.89;96176.13;5049937;28;20056;-65
2023/01/11 08:05:09;;;;;;;2.90;2.42;;;;;;;5.87;93.25;96183.97;5049889;28;20065;-66
2023/01/11 08:07:37;;;;;;;3.08;2.65;;;;;;;5.95;93.41;96175.97;5049966;28;20089;-67
2023/01/11 08:10:04;;;;;;;4.93;3.08;;;;;;;5.97;93.26;96175.94;5049978;28;20092;-66
2023/01/11 08:15:18;;;;;;;4.38;3.60;;;;;;;6.10;93.12;96192.09;5049751;28;20060;-65
2023/01/11 08:17:45;;;;;;;3.53;3.15;;;;;;;6.14;92.87;96201.53;5051651;28;20120;-64
2023/01/11 08:20:12;;;;;;;9.23;3.85;;;;;;;6.18;92.97;96200.56;5053189;28;20105;-65
2023/01/11 08:22:39;;;;;;;4.40;4.00;;;;;;;6.19;92.50;96197.06;5053142;28;20053;-67
2023/01/11 08:25:07;;;;;;;6.80;4.07;;;;;;;6.25;92.06;96207.28;5053330;28;20103;-66
2023/01/11 08:27:35;;;;;;;8.02;7.22;;;;;;;6.30;91.53;96210.59;5053204;28;20045;-63
2023/01/11 08:30:02;;;;;;;7.03;6.00;;;;;;;6.35;91.12;96212.25;5053106;28;20486;-65
2023/01/11 08:32:32;;;;;;;9.57;7.43;;;;;;;6.38;91.01;96219.97;5053117;28;20164;-62
2023/01/11 08:35:00;;;;;;;7.82;5.82;;;;;;;6.42;91.07;96219.81;5052960;28;20045;-64
2023/01/11 08:37:28;;;;;;;10.30;5.65;;;;;;;6.48;91.06;96230.97;5053043;28;20088;-67
2023/01/11 08:39:57;;;;;;;4.60;2.28;;;;;;;6.39;90.05;96229.47;5052956;28;20053;-65
2023/01/11 08:42:25;;;;;;;1.90;1.80;;;;;;;6.29;90.15;96223.66;5052696;28;20049;-64
2023/01/11 08:44:54;;;;;;;3.53;2.65;;;;;;;6.30;91.03;96238.34;5052957;28;20056;-64
2023/01/11 08:47:22;;;;;;;2.55;2.33;;;;;;;6.28;91.18;96238.38;5052840;28;20490;-65
2023/01/11 08:49:50;;;;;;;1.88;1.30;;;;;;;6.21;91.50;96236.84;5052832;28;20049;-64
2023/01/11 08:52:18;;;;;;;1.75;1.50;;;;;;;6.13;91.34;96236.16;5052946;27;20057;-67
2023/01/11 08:54:45;;;;;;;1.30;1.20;;;;;;;6.05;91.37;96242.41;5052695;28;20052;-65
2023/01/11 08:57:17;;;;;;;1.85;1.40;;;;;;;5.99;92.37;96241.69;5052848;28;20045;-65
2023/01/11 08:59:46;;;;;;;3.83;1.70;;;;;;;6.01;92.62;96250.28;5052717;28;20045;-64
2023/01/11 09:02:14;;;;;;;2.17;1.63;;;;;;;6.01;92.05;96252.88;5052571;28;20076;-67
2023/01/11 09:04:42;;;;;;;3.78;1.90;;;;;;;6.01;92.62;96247.69;5052600;28;20072;-66
2023/01/11 09:07:11;;;;;;;1.67;1.38;;;;;;;6.02;92.11;96245.03;5052731;28;20410;-64
2023/01/11 09:09:38;;;;;;;2.60;2.22;;;;;;;6.02;91.95;96249.41;5052757;28;20049;-64
2023/01/11 09:12:05;;;;;;;2.15;1.83;;;;;;;5.98;90.38;96246.03;5052527;28;20045;-62
2023/01/11 09:14:33;;;;;;;2.50;1.70;;;;;;;5.93;90.33;96253.09;5052391;28;20078;-62
2023/01/11 09:17:01;;;;;;;1.75;1.58;;;;;;;5.88;90.36;96248.00;5052322;28;20109;-65
2023/01/11 09:19:28;;;;;;;1.42;1.33;;;;;;;5.80;90.74;96255.97;5052525;28;20049;-64
2023/01/11 09:21:59;;;;;;;6.20;1.65;;;;;;;5.75;91.64;96262.16;5052433;28;20072;-64
2023/01/11 09:24:27;;;;;;;2.55;1.92;;;;;;;5.76;91.80;96261.25;5052435;28;20049;-66
2023/01/11 09:26:57;;;;;;;1.85;1.75;;;;;;;5.82;91.99;96255.94;5052391;28;20094;-65
2023/01/11 09:29:24;;;;;;;1.48;1.30;;;;;;;5.85;92.07;96260.19;5051437;28;20114;-62
2023/01/11 09:31:51;;;;;;;3.00;1.73;;;;;;;5.93;91.38;96246.13;5052211;28;20052;-64
2023/01/11 09:34:24;;;;;;;1.48;1.38;;;;;;;5.87;91.01;96241.06;5052289;28;20049;-62
2023/01/11 09:36:59;;;;;;;4.15;1.60;;;;;;;5.88;91.77;96229.81;5052026;28;20078;-64
2023/01/11 09:39:29;;;;;;;1.92;1.45;;;;;;;5.86;91.87;96236.78;5052290;27;20048;-62
2023/01/11 09:42:17;;;;;;;4.20;1.90;;;;;;;5.88;92.27;96234.16;5051905;28;20048;-64
2023/01/11 09:44:51;;;;;;;3.70;2.05;;;;;;;5.97;92.52;96243.47;5052075;28;20045;-63
2023/01/11 09:47:29;;;;;;;2.78;1.88;;;;;;;6.04;92.48;96243.31;5051984;28;20052;-66
2023/01/11 09:50:00;;;;;;;3.45;2.20;;;;;;;6.06;91.62;96238.91;5051902;28;20090;-66
2023/01/11 09:52:35;;;;;;;1.77;1.60;;;;;;;6.09;91.58;96235.41;5051981;28;20052;-66
2023/01/11 09:55:04;;;;;;;1.67;1.58;;;;;;;6.12;91.61;96248.31;5051776;28;20053;-65
2023/01/11 09:57:57;;;;;;;3.70;1.85;;;;;;;6.15;91.19;96249.97;5051766;28;20135;-63
2023/01/11 10:00:33;;;;;;;3.00;2.10;;;;;;;6.11;90.77;96253.56;5051770;28;20056;-65
2023/01/11 10:03:31;;;;;;;2.47;2.20;;;;;;;6.13;89.44;96254.34;5051689;28;20041;-66
2023/01/11 10:06:09;;;;;;;2.38;2.17;;;;;;;6.13;89.61;96247.41;5051729;28;20056;-66
2023/01/11 10:08:54;;;;;;;2.75;2.35;;;;;;;6.02;88.87;96255.44;5051559;28;20045;-65
2023/01/11 10:11:34;;;;;;;2.50;2.30;;;;;;;5.97;89.92;96253.84;5051544;28;20093;-67
2023/01/11 10:14:12;;;;;;;4.05;2.75;;;;;;;5.88;90.34;96262.72;5051590;28;20045;-64
2023/01/11 10:16:49;;;;;;;3.88;2.58;;;;;;;5.89;90.24;96256.63;5051592;28;20137;-65
2023/01/11 10:19:21;;;;;;;4.88;2.60;;;;;;;5.90;91.58;96268.72;5051555;28;20056;-67
2023/01/11 10:21:54;;;;;;;4.13;2.75;;;;;;;5.85;90.79;96262.78;5051547;28;20060;-64
2023/01/11 10:24:27;;;;;;;2.67;2.42;;;;;;;5.91;91.29;96273.03;5051408;28;20045;-66
2023/01/11 10:27:00;;;;;;;3.65;2.85;;;;;;;5.93;92.15;96272.09;5051338;28;20070;-66
2023/01/11 10:29:56;;;;;;;4.68;3.30;;;;;;;5.87;91.66;96268.81;5051353;28;20056;-63
2023/01/11 10:32:44;;;;;;;3.85;2.72;;;;;;;5.81;92.61;96269.81;5051212;28;20520;-63
2023/01/11 10:38:25;;;;;;;4.20;2.95;;;;;;;5.83;93.20;96265.41;5048339;28;20522;-66
2023/01/11 10:41:07;;;;;;;4.13;2.78;;;;;;;5.80;92.42;96260.28;5051004;28;20054;-63
2023/01/11 10:43:41;;;;;;;4.28;3.00;;;;;;;5.69;92.74;96258.78;5050931;28;20442;-65
2023/01/11 10:46:12;;;;;;;5.43;3.10;;;;;;;5.63;93.09;96261.53;5051046;28;20045;-62
2023/01/11 10:48:42;;;;;;;7.00;2.95;;;;;;;5.61;93.90;96257.25;5050860;28;20113;-66
2023/01/11 10:51:23;;;;;;;5.25;2.95;;;;;;;5.60;93.95;96259.00;5050936;28;20132;-65
2023/01/11 10:54:00;;;;;;;3.58;2.70;;;;;;;5.55;93.87;96247.88;5051002;28;20482;-64
2023/01/11 10:56:41;;;;;;;4.47;3.03;;;;;;;5.54;94.43;96249.63;5050715;28;20059;-65
2023/01/11 10:59:30;;;;;;;3.55;2.90;;;;;;;5.51;94.30;96254.88;5050842;28;20045;-63
2023/01/11 11:02:08;;;;;;;3.95;3.03;;;;;;;5.48;94.44;96248.91;5050761;28;20045;-64
2023/01/11 11:04:59;;;;;;;4.75;3.30;;;;;;;5.46;94.71;96255.88;5050808;28;20397;-65
2023/01/11 11:07:35;;;;;;;4.22;3.17;;;;;;;5.51;94.83;96244.50;5050769;28;20109;-65
2023/01/11 11:10:13;;;;;;;10.35;3.83;;;;;;;5.46;95.06;96245.50;5050644;28;20048;-64
2023/01/11 11:12:47;;;;;;;4.35;3.78;;;;;;;5.45;93.96;96247.25;5050643;28;20049;-64
2023/01/11 11:15:22;;;;;;;6.90;4.10;;;;;;;5.44;94.16;96250.72;5050555;28;20045;-66
2023/01/11 11:17:51;;;;;;;4.65;3.60;;;;;;;5.41;94.68;96245.59;5050475;28;20105;-65
2023/01/11 11:20:20;;;;;;;4.35;3.42;;;;;;;5.40;94.56;96249.94;5050580;28;20049;-64
2023/01/11 11:22:49;;;;;;;7.75;4.00;;;;;;;5.43;94.56;96241.22;5050411;28;20450;-64
2023/01/11 11:25:19;;;;;;;4.20;3.70;;;;;;;5.42;93.72;96242.13;5050491;28;20459;-61
2023/01/11 11:27:50;;;;;;;4.57;4.00;;;;;;;5.43;94.09;96239.50;5050359;28;20516;-63
2023/01/11 11:30:30;;;;;;;3.45;2.95;;;;;;;5.42;93.17;96249.91;5050281;28;20057;-63
2023/01/11 11:33:01;;;;;;;3.83;3.30;;;;;;;5.35;92.86;96254.38;5050351;28;20056;-63
2023/01/11 11:35:34;;;;;;;4.70;3.42;;;;;;;5.31;93.67;96256.19;5050153;28;20049;-63
2023/01/11 11:38:02;;;;;;;3.95;3.13;;;;;;;5.27;93.05;96248.50;5050266;28;20048;-64
2023/01/11 11:40:32;;;;;;;5.72;4.30;;;;;;;5.33;93.92;96255.28;5050235;28;20053;-64
2023/01/11 11:43:21;;;;;;;4.15;3.22;;;;;;;5.34;93.66;96247.47;5049899;28;20064;-63
2023/01/11 11:45:55;;;;;;;5.32;3.17;;;;;;;5.34;94.54;96244.03;5050165;28;20075;-63
2023/01/11 11:48:23;;;;;;;5.15;3.55;;;;;;;5.36;93.82;96248.28;5050097;28;20041;-65
2023/01/11 11:50:51;;;;;;;4.95;3.03;;;;;;;5.30;93.47;96245.84;5050055;28;20049;-63
2023/01/11 11:53:33;;;;;;;5.65;3.65;;;;;;;5.25;93.44;96245.94;5049490;28;20056;-63
2023/01/11 11:56:07;;;;;;;4.25;2.75;;;;;;;5.25;91.95;96239.88;5049973;28;20064;-66
2023/01/11 11:58:34;;;;;;;5.63;3.17;;;;;;;5.21;93.15;96235.66;5050045;28;20052;-63
2023/01/11 12:01:06;;;;;;;4.63;2.92;;;;;;;5.20;92.78;96239.97;5049894;28;20047;-64
2023/01/11 12:03:35;;;;;;;3.83;2.97;;;;;;;5.20;92.45;96239.16;5049996;28;20135;-64
2023/01/11 12:06:04;;;;;;;3.88;3.20;;;;;;;5.11;92.50;96233.25;5049839;28;20555;-64
2023/01/11 12:08:34;;;;;;;4.82;3.30;;;;;;;5.18;93.80;96231.41;5049830;28;20055;-64
2023/01/11 12:11:03;;;;;;;4.22;3.70;;;;;;;5.18;92.89;96229.63;5049712;28;20474;-64
2023/01/11 12:13:34;;;;;;;5.13;3.95;;;;;;;5.21;92.90;96236.50;5049944;28;20487;-63
2023/01/11 12:16:06;;;;;;;4.63;3.17;;;;;;;5.20;92.86;96231.38;5049792;28;20139;-62
2023/01/11 12:18:41;;;;;;;4.93;3.38;;;;;;;5.25;92.74;96226.91;5049747;28;20407;-67
2023/01/11 12:21:18;;;;;;;4.50;3.35;;;;;;;5.30;92.60;96225.09;5049761;28;20506;-62
2023/01/11 12:23:45;;;;;;;4.22;3.30;;;;;;;5.36;92.87;96239.66;5049691;28;20051;-66